sensor_id;sensor_type;location;lat;lon;timestamp;temperature;humidity
11246;DHT22;59870;50.106;8.580;2023-02-01T00:01:58;9.90;96.60
11246;DHT22;59870;50.106;8.580;2023-02-01T00:04:28;9.50;96.20
11246;DHT22;59870;50.106;8.580;2023-02-01T00:06:56;10.10;96.00
11246;DHT22;59870;50.106;8.580;2023-02-01T00:09:25;9.90;96.30
11246;DHT22;59870;50.106;8.580;2023-02-01T00:11:53;10.10;95.90
11246;DHT22;59870;50.106;8.580;2023-02-01T00:14:22;9.90;96.10
11246;DHT22;59870;50.106;8.580;2023-02-01T00:16:51;10.10;96.00
11246;DHT22;59870;50.106;8.580;2023-02-01T00:19:19;10.20;95.90
11246;DHT22;59870;50.106;8.580;2023-02-01T00:21:48;10.20;95.80
11246;DHT22;59870;50.106;8.580;2023-02-01T00:24:16;10.20;95.90
11246;DHT22;59870;50.106;8.580;2023-02-01T00:26:45;9.70;96.10
11246;DHT22;59870;50.106;8.580;2023-02-01T00:29:19;10.00;95.70
11246;DHT22;59870;50.106;8.580;2023-02-01T00:31:50;9.70;96.20
11246;DHT22;59870;50.106;8.580;2023-02-01T00:34:20;10.00;95.80
11246;DHT22;59870;50.106;8.580;2023-02-01T00:36:50;10.20;95.80
11246;DHT22;59870;50.106;8.580;2023-02-01T00:39:21;9.70;95.70
11246;DHT22;59870;50.106;8.580;2023-02-01T00:41:55;9.70;96.00
11246;DHT22;59870;50.106;8.580;2023-02-01T00:44:40;10.10;95.70
11246;DHT22;59870;50.106;8.580;2023-02-01T00:47:08;10.20;95.50
11246;DHT22;59870;50.106;8.580;2023-02-01T00:49:47;10.10;95.40
11246;DHT22;59870;50.106;8.580;2023-02-01T00:52:55;9.80;96.10
11246;DHT22;59870;50.106;8.580;2023-02-01T01:00:11;10.10;95.60
11246;DHT22;59870;50.106;8.580;2023-02-01T01:02:43;9.80;95.70
11246;DHT22;59870;50.106;8.580;2023-02-01T01:05:21;10.30;95.50
11246;DHT22;59870;50.106;8.580;2023-02-01T01:07:54;9.80;95.90
11246;DHT22;59870;50.106;8.580;2023-02-01T01:10:24;10.10;95.30
11246;DHT22;59870;50.106;8.580;2023-02-01T01:13:04;10.10;95.50
11246;DHT22;59870;50.106;8.580;2023-02-01T01:15:38;10.10;95.60
11246;DHT22;59870;50.106;8.580;2023-02-01T01:18:13;9.80;96.00
11246;DHT22;59870;50.106;8.580;2023-02-01T01:20:47;9.80;95.70
11246;DHT22;59870;50.106;8.580;2023-02-01T01:23:16;10.10;95.50
11246;DHT22;59870;50.106;8.580;2023-02-01T01:25:45;10.20;95.50
11246;DHT22;59870;50.106;8.580;2023-02-01T01:28:15;10.40;95.40
11246;DHT22;59870;50.106;8.580;2023-02-01T01:35:18;9.80;96.10
11246;DHT22;59870;50.106;8.580;2023-02-01T01:37:57;9.80;95.90
11246;DHT22;59870;50.106;8.580;2023-02-01T01:40:30;10.10;95.60
11246;DHT22;59870;50.106;8.580;2023-02-01T01:43:00;9.90;96.10
11246;DHT22;59870;50.106;8.580;2023-02-01T01:45:31;10.20;95.40
11246;DHT22;59870;50.106;8.580;2023-02-01T01:48:08;10.10;95.60
11246;DHT22;59870;50.106;8.580;2023-02-01T01:50:48;10.00;95.70
11246;DHT22;59870;50.106;8.580;2023-02-01T01:53:27;10.30;95.80
11246;DHT22;59870;50.106;8.580;2023-02-01T01:56:49;9.80;96.20
11246;DHT22;59870;50.106;8.580;2023-02-01T02:03:54;9.70;96.30
11246;DHT22;59870;50.106;8.580;2023-02-01T08:59:07;10.20;91.80
11246;DHT22;59870;50.106;8.580;2023-02-01T09:01:36;10.20;91.80
11246;DHT22;59870;50.106;8.580;2023-02-01T09:04:06;10.40;91.60
11246;DHT22;59870;50.106;8.580;2023-02-01T09:06:35;10.00;91.10
11246;DHT22;59870;50.106;8.580;2023-02-01T09:09:08;10.30;91.30
11246;DHT22;59870;50.106;8.580;2023-02-01T09:11:39;10.40;91.20
11246;DHT22;59870;50.106;8.580;2023-02-01T09:14:09;10.20;91.20
11246;DHT22;59870;50.106;8.580;2023-02-01T09:16:39;10.30;91.30
11246;DHT22;59870;50.106;8.580;2023-02-01T09:19:08;10.70;91.10
11246;DHT22;59870;50.106;8.580;2023-02-01T09:22:01;10.70;91.00
11246;DHT22;59870;50.106;8.580;2023-02-01T09:24:32;10.70;90.30
11246;DHT22;59870;50.106;8.580;2023-02-01T09:27:01;10.70;90.50
11246;DHT22;59870;50.106;8.580;2023-02-01T09:29:32;10.70;90.50
11246;DHT22;59870;50.106;8.580;2023-02-01T09:32:07;10.60;89.80
11246;DHT22;59870;50.106;8.580;2023-02-01T09:34:36;10.90;90.10
11246;DHT22;59870;50.106;8.580;2023-02-01T09:37:03;10.80;90.00
11246;DHT22;59870;50.106;8.580;2023-02-01T09:39:31;10.80;90.00
11246;DHT22;59870;50.106;8.580;2023-02-01T09:42:05;10.80;90.10
11246;DHT22;59870;50.106;8.580;2023-02-01T09:47:49;10.90;89.20
11246;DHT22;59870;50.106;8.580;2023-02-01T09:50:21;11.00;89.80
11246;DHT22;59870;50.106;8.580;2023-02-01T09:53:15;10.90;89.40
11246;DHT22;59870;50.106;8.580;2023-02-01T09:55:49;10.90;90.10
11246;DHT22;59870;50.106;8.580;2023-02-01T09:58:26;11.20;89.60
11246;DHT22;59870;50.106;8.580;2023-02-01T10:00:58;11.20;88.90
11246;DHT22;59870;50.106;8.580;2023-02-01T10:03:34;11.00;88.00
11246;DHT22;59870;50.106;8.580;2023-02-01T10:06:30;11.00;88.00
11246;DHT22;59870;50.106;8.580;2023-02-01T10:18:04;11.10;88.20
11246;DHT22;59870;50.106;8.580;2023-02-01T10:26:21;11.20;86.80
11246;DHT22;59870;50.106;8.580;2023-02-01T10:28:53;11.20;87.60
11246;DHT22;59870;50.106;8.580;2023-02-01T10:31:24;11.20;87.50
11246;DHT22;59870;50.106;8.580;2023-02-01T10:33:59;11.00;86.90
11246;DHT22;59870;50.106;8.580;2023-02-01T10:36:34;11.30;87.00
11246;DHT22;59870;50.106;8.580;2023-02-01T10:39:05;11.50;87.00
11246;DHT22;59870;50.106;8.580;2023-02-01T10:41:38;11.30;86.30
11246;DHT22;59870;50.106;8.580;2023-02-01T10:44:12;11.60;85.50
11246;DHT22;59870;50.106;8.580;2023-02-01T10:46:42;11.40;85.20
11246;DHT22;59870;50.106;8.580;2023-02-01T10:49:20;11.60;85.00
11246;DHT22;59870;50.106;8.580;2023-02-01T10:52:05;11.60;86.40
11246;DHT22;59870;50.106;8.580;2023-02-01T10:54:39;11.50;86.30
11246;DHT22;59870;50.106;8.580;2023-02-01T10:57:23;11.50;86.00
11246;DHT22;59870;50.106;8.580;2023-02-01T10:59:57;11.50;85.90
11246;DHT22;59870;50.106;8.580;2023-02-01T11:02:35;11.60;85.30
11246;DHT22;59870;50.106;8.580;2023-02-01T11:05:10;11.60;85.60
11246;DHT22;59870;50.106;8.580;2023-02-01T11:07:47;11.80;85.40
11246;DHT22;59870;50.106;8.580;2023-02-01T11:10:40;11.80;85.20
11246;DHT22;59870;50.106;8.580;2023-02-01T11:13:16;11.60;84.50
11246;DHT22;59870;50.106;8.580;2023-02-01T11:15:46;11.60;85.10
11246;DHT22;59870;50.106;8.580;2023-02-01T11:18:17;11.60;85.50
11246;DHT22;59870;50.106;8.580;2023-02-01T11:20:46;11.80;85.80
11246;DHT22;59870;50.106;8.580;2023-02-01T11:23:22;11.60;85.50
11246;DHT22;59870;50.106;8.580;2023-02-01T11:25:54;11.80;84.90
11246;DHT22;59870;50.106;8.580;2023-02-01T11:28:32;11.80;84.50
11246;DHT22;59870;50.106;8.580;2023-02-01T11:31:09;11.60;85.70
11246;DHT22;59870;50.106;8.580;2023-02-01T11:33:38;11.60;85.80
11246;DHT22;59870;50.106;8.580;2023-02-01T11:36:15;11.60;84.30
11246;DHT22;59870;50.106;8.580;2023-02-01T11:38:52;11.70;84.80
11246;DHT22;59870;50.106;8.580;2023-02-01T11:43:57;11.70;84.40
11246;DHT22;59870;50.106;8.580;2023-02-01T11:46:32;11.70;84.00
11246;DHT22;59870;50.106;8.580;2023-02-01T11:49:21;12.00;84.70
11246;DHT22;59870;50.106;8.580;2023-02-01T11:55:14;11.60;83.70
11246;DHT22;59870;50.106;8.580;2023-02-01T11:58:12;11.80;84.40
11246;DHT22;59870;50.106;8.580;2023-02-01T12:06:53;11.90;84.30
11246;DHT22;59870;50.106;8.580;2023-02-01T12:09:55;11.90;84.80
11246;DHT22;59870;50.106;8.580;2023-02-01T12:18:12;11.90;84.60
11246;DHT22;59870;50.106;8.580;2023-02-01T12:23:59;12.00;84.50
11246;DHT22;59870;50.106;8.580;2023-02-01T12:26:46;12.20;84.70
11246;DHT22;59870;50.106;8.580;2023-02-01T12:32:27;12.00;84.40
11246;DHT22;59870;50.106;8.580;2023-02-01T12:43:25;12.10;84.60
11246;DHT22;59870;50.106;8.580;2023-02-01T12:45:56;12.10;84.40
11246;DHT22;59870;50.106;8.580;2023-02-01T12:48:52;12.20;84.10
11246;DHT22;59870;50.106;8.580;2023-02-01T12:51:26;12.20;84.20
11246;DHT22;59870;50.106;8.580;2023-02-01T12:54:18;12.30;83.90
11246;DHT22;59870;50.106;8.580;2023-02-01T12:56:59;12.30;83.70
11246;DHT22;59870;50.106;8.580;2023-02-01T12:59:36;12.30;84.00
11246;DHT22;59870;50.106;8.580;2023-02-01T13:03:10;12.30;83.70
11246;DHT22;59870;50.106;8.580;2023-02-01T13:05:25;12.30;83.60
11246;DHT22;59870;50.106;8.580;2023-02-01T13:08:27;12.50;83.60
11246;DHT22;59870;50.106;8.580;2023-02-01T13:11:13;12.30;84.10
11246;DHT22;59870;50.106;8.580;2023-02-01T13:16:41;12.30;83.30
11246;DHT22;59870;50.106;8.580;2023-02-01T13:19:19;12.30;82.80
11246;DHT22;59870;50.106;8.580;2023-02-01T13:22:02;12.40;83.40
11246;DHT22;59870;50.106;8.580;2023-02-01T13:24:51;12.20;82.70
11246;DHT22;59870;50.106;8.580;2023-02-01T13:27:21;12.20;83.00
11246;DHT22;59870;50.106;8.580;2023-02-01T13:41:39;12.30;82.70
11246;DHT22;59870;50.106;8.580;2023-02-01T13:44:18;12.30;82.50
11246;DHT22;59870;50.106;8.580;2023-02-01T13:46:54;12.50;83.00
11246;DHT22;59870;50.106;8.580;2023-02-01T13:49:29;12.50;83.40
11246;DHT22;59870;50.106;8.580;2023-02-01T13:52:02;12.50;82.60
11246;DHT22;59870;50.106;8.580;2023-02-01T13:54:36;12.30;82.40
11246;DHT22;59870;50.106;8.580;2023-02-01T13:57:29;12.30;82.90
11246;DHT22;59870;50.106;8.580;2023-02-01T14:00:23;12.60;82.50
11246;DHT22;59870;50.106;8.580;2023-02-01T14:13:29;12.30;81.70
11246;DHT22;59870;50.106;8.580;2023-02-01T14:26:56;12.70;79.20
11246;DHT22;59870;50.106;8.580;2023-02-01T14:29:35;12.50;79.20
11246;DHT22;59870;50.106;8.580;2023-02-01T14:32:21;12.70;79.50
11246;DHT22;59870;50.106;8.580;2023-02-01T14:34:56;12.30;78.80
11246;DHT22;59870;50.106;8.580;2023-02-01T14:37:35;12.50;79.00
11246;DHT22;59870;50.106;8.580;2023-02-01T14:40:19;12.20;78.60
11246;DHT22;59870;50.106;8.580;2023-02-01T14:42:49;12.50;79.20
11246;DHT22;59870;50.106;8.580;2023-02-01T14:51:56;12.40;78.80
11246;DHT22;59870;50.106;8.580;2023-02-01T15:29:26;12.20;79.80
11246;DHT22;59870;50.106;8.580;2023-02-01T15:31:56;12.30;79.30
11246;DHT22;59870;50.106;8.580;2023-02-01T15:37:34;12.30;79.70
11246;DHT22;59870;50.106;8.580;2023-02-01T15:40:23;12.00;78.40
11246;DHT22;59870;50.106;8.580;2023-02-01T15:46:49;12.00;79.40
11246;DHT22;59870;50.106;8.580;2023-02-01T15:49:23;12.50;79.80
11246;DHT22;59870;50.106;8.580;2023-02-01T15:51:53;12.30;79.10
11246;DHT22;59870;50.106;8.580;2023-02-01T15:54:58;12.30;79.70
11246;DHT22;59870;50.106;8.580;2023-02-01T15:57:34;12.20;79.50
11246;DHT22;59870;50.106;8.580;2023-02-01T16:04:12;12.20;80.80
11246;DHT22;59870;50.106;8.580;2023-02-01T16:09:52;12.20;81.80
11246;DHT22;59870;50.106;8.580;2023-02-01T16:12:45;12.10;81.10
11246;DHT22;59870;50.106;8.580;2023-02-01T16:15:14;12.10;81.10
11246;DHT22;59870;50.106;8.580;2023-02-01T16:17:42;12.20;80.40
11246;DHT22;59870;50.106;8.580;2023-02-01T16:20:11;12.40;80.90
11246;DHT22;59870;50.106;8.580;2023-02-01T16:22:39;12.20;80.80
11246;DHT22;59870;50.106;8.580;2023-02-01T16:25:09;12.10;80.20
11246;DHT22;59870;50.106;8.580;2023-02-01T16:27:42;11.70;79.70
11246;DHT22;59870;50.106;8.580;2023-02-01T16:30:38;11.80;80.10
11246;DHT22;59870;50.106;8.580;2023-02-01T16:33:16;12.00;81.10
11246;DHT22;59870;50.106;8.580;2023-02-01T16:54:23;11.80;82.10
11246;DHT22;59870;50.106;8.580;2023-02-01T16:56:51;11.80;81.60
11246;DHT22;59870;50.106;8.580;2023-02-01T16:59:19;11.80;81.60
11246;DHT22;59870;50.106;8.580;2023-02-01T17:01:47;12.00;82.00
11246;DHT22;59870;50.106;8.580;2023-02-01T17:04:14;11.80;82.00
11246;DHT22;59870;50.106;8.580;2023-02-01T17:06:43;11.70;82.10
11246;DHT22;59870;50.106;8.580;2023-02-01T17:09:14;11.70;82.20
11246;DHT22;59870;50.106;8.580;2023-02-01T17:11:42;11.70;82.50
11246;DHT22;59870;50.106;8.580;2023-02-01T17:14:20;11.70;82.50
11246;DHT22;59870;50.106;8.580;2023-02-01T17:16:49;11.70;83.10
11246;DHT22;59870;50.106;8.580;2023-02-01T17:19:19;11.70;83.00
11246;DHT22;59870;50.106;8.580;2023-02-01T17:21:54;11.70;82.50
11246;DHT22;59870;50.106;8.580;2023-02-01T17:24:26;11.70;83.10
11246;DHT22;59870;50.106;8.580;2023-02-01T17:27:05;11.80;82.90
11246;DHT22;59870;50.106;8.580;2023-02-01T17:29:32;11.80;83.10
11246;DHT22;59870;50.106;8.580;2023-02-01T17:32:00;12.00;83.60
11246;DHT22;59870;50.106;8.580;2023-02-01T17:34:31;11.80;84.70
11246;DHT22;59870;50.106;8.580;2023-02-01T17:37:04;11.80;84.40
11246;DHT22;59870;50.106;8.580;2023-02-01T17:39:32;11.90;84.40
11246;DHT22;59870;50.106;8.580;2023-02-01T17:42:18;12.00;85.00
11246;DHT22;59870;50.106;8.580;2023-02-01T17:44:46;11.60;85.10
11246;DHT22;59870;50.106;8.580;2023-02-01T17:47:13;11.60;85.60
11246;DHT22;59870;50.106;8.580;2023-02-01T17:49:40;11.60;85.90
11246;DHT22;59870;50.106;8.580;2023-02-01T17:52:14;11.60;86.20
11246;DHT22;59870;50.106;8.580;2023-02-01T17:54:42;11.50;87.10
11246;DHT22;59870;50.106;8.580;2023-02-01T17:57:13;11.50;86.60
11246;DHT22;59870;50.106;8.580;2023-02-01T17:59:40;11.50;86.40
11246;DHT22;59870;50.106;8.580;2023-02-01T18:02:23;11.50;86.10
11246;DHT22;59870;50.106;8.580;2023-02-01T18:04:51;11.50;86.70
11246;DHT22;59870;50.106;8.580;2023-02-01T18:07:18;11.50;86.90
11246;DHT22;59870;50.106;8.580;2023-02-01T18:09:46;11.50;86.60
11246;DHT22;59870;50.106;8.580;2023-02-01T18:12:20;11.50;86.80
11246;DHT22;59870;50.106;8.580;2023-02-01T18:14:48;11.50;86.80
11246;DHT22;59870;50.106;8.580;2023-02-01T18:17:15;11.50;86.90
11246;DHT22;59870;50.106;8.580;2023-02-01T18:19:43;11.50;87.40
11246;DHT22;59870;50.106;8.580;2023-02-01T18:22:19;11.50;88.20
11246;DHT22;59870;50.106;8.580;2023-02-01T18:24:49;11.50;89.00
11246;DHT22;59870;50.106;8.580;2023-02-01T18:27:16;11.50;88.80
11246;DHT22;59870;50.106;8.580;2023-02-01T18:29:44;11.50;89.20
11246;DHT22;59870;50.106;8.580;2023-02-01T18:32:14;11.50;89.10
11246;DHT22;59870;50.106;8.580;2023-02-01T18:34:42;11.50;89.90
11246;DHT22;59870;50.106;8.580;2023-02-01T18:37:09;11.50;90.10
11246;DHT22;59870;50.106;8.580;2023-02-01T18:39:36;11.50;90.30
11246;DHT22;59870;50.106;8.580;2023-02-01T18:42:07;11.40;90.20
11246;DHT22;59870;50.106;8.580;2023-02-01T18:44:36;11.40;90.50
11246;DHT22;59870;50.106;8.580;2023-02-01T18:47:04;11.40;90.30
11246;DHT22;59870;50.106;8.580;2023-02-01T18:49:31;11.40;90.30
11246;DHT22;59870;50.106;8.580;2023-02-01T18:51:59;11.30;90.40
11246;DHT22;59870;50.106;8.580;2023-02-01T18:54:35;11.30;90.70
11246;DHT22;59870;50.106;8.580;2023-02-01T18:57:20;11.30;90.90
11246;DHT22;59870;50.106;8.580;2023-02-01T18:59:47;11.20;90.70
11246;DHT22;59870;50.106;8.580;2023-02-01T19:02:15;11.20;90.80
11246;DHT22;59870;50.106;8.580;2023-02-01T19:04:42;11.10;91.00
11246;DHT22;59870;50.106;8.580;2023-02-01T19:07:10;11.10;91.30
11246;DHT22;59870;50.106;8.580;2023-02-01T19:09:37;11.10;91.30
11246;DHT22;59870;50.106;8.580;2023-02-01T19:12:05;11.10;91.40
11246;DHT22;59870;50.106;8.580;2023-02-01T19:14:32;11.10;91.60
11246;DHT22;59870;50.106;8.580;2023-02-01T19:17:00;10.80;91.40
11246;DHT22;59870;50.106;8.580;2023-02-01T19:19:28;11.10;91.20
11246;DHT22;59870;50.106;8.580;2023-02-01T19:21:56;11.10;91.70
11246;DHT22;59870;50.106;8.580;2023-02-01T19:24:24;11.10;91.40
11246;DHT22;59870;50.106;8.580;2023-02-01T19:26:54;11.30;91.50
11246;DHT22;59870;50.106;8.580;2023-02-01T19:29:23;11.10;91.50
11246;DHT22;59870;50.106;8.580;2023-02-01T19:31:50;11.40;91.60
11246;DHT22;59870;50.106;8.580;2023-02-01T19:34:18;11.10;91.50
11246;DHT22;59870;50.106;8.580;2023-02-01T19:36:46;11.10;91.50
11246;DHT22;59870;50.106;8.580;2023-02-01T19:39:14;11.00;91.60
11246;DHT22;59870;50.106;8.580;2023-02-01T19:41:43;11.00;91.50
11246;DHT22;59870;50.106;8.580;2023-02-01T19:44:10;11.00;91.50
11246;DHT22;59870;50.106;8.580;2023-02-01T19:46:37;11.00;91.30
11246;DHT22;59870;50.106;8.580;2023-02-01T19:49:05;11.00;91.20
11246;DHT22;59870;50.106;8.580;2023-02-01T19:51:38;11.00;91.20
11246;DHT22;59870;50.106;8.580;2023-02-01T19:54:07;11.00;91.20
11246;DHT22;59870;50.106;8.580;2023-02-01T19:56:38;11.00;91.30
11246;DHT22;59870;50.106;8.580;2023-02-01T19:59:06;11.00;91.30
11246;DHT22;59870;50.106;8.580;2023-02-01T20:01:34;11.00;91.30
11246;DHT22;59870;50.106;8.580;2023-02-01T20:04:05;11.00;91.30
11246;DHT22;59870;50.106;8.580;2023-02-01T20:06:38;11.00;91.20
11246;DHT22;59870;50.106;8.580;2023-02-01T20:09:06;11.00;91.10
11246;DHT22;59870;50.106;8.580;2023-02-01T20:11:34;11.30;91.30
11246;DHT22;59870;50.106;8.580;2023-02-01T20:14:01;11.00;91.00
11246;DHT22;59870;50.106;8.580;2023-02-01T20:16:29;11.20;91.20
11246;DHT22;59870;50.106;8.580;2023-02-01T20:18:56;10.90;90.80
11246;DHT22;59870;50.106;8.580;2023-02-01T20:21:24;10.90;90.80
11246;DHT22;59870;50.106;8.580;2023-02-01T20:23:51;10.90;90.70
11246;DHT22;59870;50.106;8.580;2023-02-01T20:26:21;10.90;90.70
11246;DHT22;59870;50.106;8.580;2023-02-01T20:28:53;10.90;91.00
11246;DHT22;59870;50.106;8.580;2023-02-01T20:31:22;10.80;90.90
11246;DHT22;59870;50.106;8.580;2023-02-01T20:33:51;10.80;90.80
11246;DHT22;59870;50.106;8.580;2023-02-01T20:36:18;10.80;90.70
11246;DHT22;59870;50.106;8.580;2023-02-01T20:38:46;11.10;90.90
11246;DHT22;59870;50.106;8.580;2023-02-01T20:41:14;10.80;90.60
11246;DHT22;59870;50.106;8.580;2023-02-01T20:43:44;10.80;90.60
11246;DHT22;59870;50.106;8.580;2023-02-01T20:46:11;10.80;90.80
11246;DHT22;59870;50.106;8.580;2023-02-01T20:48:47;10.80;90.70
11246;DHT22;59870;50.106;8.580;2023-02-01T20:51:18;10.80;90.60
11246;DHT22;59870;50.106;8.580;2023-02-01T20:53:46;10.80;90.50
11246;DHT22;59870;50.106;8.580;2023-02-01T20:56:14;10.80;90.60
11246;DHT22;59870;50.106;8.580;2023-02-01T20:58:43;10.80;90.30
11246;DHT22;59870;50.106;8.580;2023-02-01T21:01:10;10.80;90.20
11246;DHT22;59870;50.106;8.580;2023-02-01T21:03:38;10.80;90.40
11246;DHT22;59870;50.106;8.580;2023-02-01T21:06:07;10.80;90.40
11246;DHT22;59870;50.106;8.580;2023-02-01T21:08:34;10.80;90.20
11246;DHT22;59870;50.106;8.580;2023-02-01T21:11:08;10.90;90.10
11246;DHT22;59870;50.106;8.580;2023-02-01T21:13:39;10.70;90.30
11246;DHT22;59870;50.106;8.580;2023-02-01T21:16:11;10.70;90.30
11246;DHT22;59870;50.106;8.580;2023-02-01T21:18:39;10.80;90.30
11246;DHT22;59870;50.106;8.580;2023-02-01T21:21:09;10.70;89.90
11246;DHT22;59870;50.106;8.580;2023-02-01T21:23:38;10.70;90.30
11246;DHT22;59870;50.106;8.580;2023-02-01T21:26:15;10.70;90.30
11246;DHT22;59870;50.106;8.580;2023-02-01T21:28:44;10.60;90.40
11246;DHT22;59870;50.106;8.580;2023-02-01T21:31:11;10.70;90.20
11246;DHT22;59870;50.106;8.580;2023-02-01T21:33:42;10.70;90.30
11246;DHT22;59870;50.106;8.580;2023-02-01T21:36:09;10.70;90.30
11246;DHT22;59870;50.106;8.580;2023-02-01T21:38:49;10.70;90.10
11246;DHT22;59870;50.106;8.580;2023-02-01T21:41:18;10.70;90.30
11246;DHT22;59870;50.106;8.580;2023-02-01T21:44:05;10.70;90.40
11246;DHT22;59870;50.106;8.580;2023-02-01T21:46:33;10.70;90.40
11246;DHT22;59870;50.106;8.580;2023-02-01T21:49:01;10.70;90.30
11246;DHT22;59870;50.106;8.580;2023-02-01T21:51:32;10.80;90.60
11246;DHT22;59870;50.106;8.580;2023-02-01T21:54:01;10.90;90.80
11246;DHT22;59870;50.106;8.580;2023-02-01T21:56:28;10.70;90.70
11246;DHT22;59870;50.106;8.580;2023-02-01T21:58:56;10.70;90.60
11246;DHT22;59870;50.106;8.580;2023-02-01T22:01:23;11.00;90.80
11246;DHT22;59870;50.106;8.580;2023-02-01T22:03:52;10.80;90.60
11246;DHT22;59870;50.106;8.580;2023-02-01T22:06:25;11.00;90.90
11246;DHT22;59870;50.106;8.580;2023-02-01T22:08:53;10.80;91.00
11246;DHT22;59870;50.106;8.580;2023-02-01T22:11:21;10.80;90.90
11246;DHT22;59870;50.106;8.580;2023-02-01T22:13:50;10.80;90.70
11246;DHT22;59870;50.106;8.580;2023-02-01T22:16:18;10.80;90.70
11246;DHT22;59870;50.106;8.580;2023-02-01T22:18:49;11.10;91.00
11246;DHT22;59870;50.106;8.580;2023-02-01T22:21:17;10.80;91.00
11246;DHT22;59870;50.106;8.580;2023-02-01T22:23:50;10.80;90.90
11246;DHT22;59870;50.106;8.580;2023-02-01T22:26:21;10.80;90.70
11246;DHT22;59870;50.106;8.580;2023-02-01T22:28:49;10.80;90.80
11246;DHT22;59870;50.106;8.580;2023-02-01T22:31:17;10.80;90.70
11246;DHT22;59870;50.106;8.580;2023-02-01T22:33:46;10.90;91.00
11246;DHT22;59870;50.106;8.580;2023-02-01T22:36:14;11.10;91.20
11246;DHT22;59870;50.106;8.580;2023-02-01T22:38:45;11.10;91.10
11246;DHT22;59870;50.106;8.580;2023-02-01T22:41:13;11.10;91.10
11246;DHT22;59870;50.106;8.580;2023-02-01T22:43:41;10.90;90.80
11246;DHT22;59870;50.106;8.580;2023-02-01T22:46:28;10.90;91.20
11246;DHT22;59870;50.106;8.580;2023-02-01T22:48:57;10.90;91.20
11246;DHT22;59870;50.106;8.580;2023-02-01T22:51:27;11.20;91.50
11246;DHT22;59870;50.106;8.580;2023-02-01T22:53:56;11.00;91.20
11246;DHT22;59870;50.106;8.580;2023-02-01T22:56:35;11.00;91.20
11246;DHT22;59870;50.106;8.580;2023-02-01T22:59:08;11.00;91.30
11246;DHT22;59870;50.106;8.580;2023-02-01T23:01:36;11.10;91.00
11246;DHT22;59870;50.106;8.580;2023-02-01T23:04:05;11.00;91.10
11246;DHT22;59870;50.106;8.580;2023-02-01T23:06:33;11.10;91.30
11246;DHT22;59870;50.106;8.580;2023-02-01T23:09:07;11.10;91.00
11246;DHT22;59870;50.106;8.580;2023-02-01T23:11:38;11.10;91.30
11246;DHT22;59870;50.106;8.580;2023-02-01T23:14:06;11.10;91.00
11246;DHT22;59870;50.106;8.580;2023-02-01T23:16:34;11.10;91.20
11246;DHT22;59870;50.106;8.580;2023-02-01T23:19:02;11.10;91.20
11246;DHT22;59870;50.106;8.580;2023-02-01T23:21:30;11.10;91.30
11246;DHT22;59870;50.106;8.580;2023-02-01T23:23:59;11.20;91.40
11246;DHT22;59870;50.106;8.580;2023-02-01T23:26:29;11.30;91.50
11246;DHT22;59870;50.106;8.580;2023-02-01T23:28:58;11.30;91.50
11246;DHT22;59870;50.106;8.580;2023-02-01T23:31:28;11.10;91.50
11246;DHT22;59870;50.106;8.580;2023-02-01T23:34:00;11.10;91.60
11246;DHT22;59870;50.106;8.580;2023-02-01T23:36:28;11.10;91.40
11246;DHT22;59870;50.106;8.580;2023-02-01T23:38:57;11.10;91.40
11246;DHT22;59870;50.106;8.580;2023-02-01T23:41:25;11.10;91.30
11246;DHT22;59870;50.106;8.580;2023-02-01T23:43:56;11.10;91.60
11246;DHT22;59870;50.106;8.580;2023-02-01T23:46:28;11.40;91.40
11246;DHT22;59870;50.106;8.580;2023-02-01T23:48:57;11.10;91.50
11246;DHT22;59870;50.106;8.580;2023-02-01T23:51:25;11.20;91.50
11246;DHT22;59870;50.106;8.580;2023-02-01T23:53:53;11.20;91.60
11246;DHT22;59870;50.106;8.580;2023-02-01T23:56:24;11.20;91.50
11246;DHT22;59870;50.106;8.580;2023-02-01T23:58:52;11.20;91.70
